aviador You're here:

UBBG Decoded Metar

GYANDZHA in RUSSIA
Report Time2017-08-24 08:30:00
UTC Time2017-08-24 08:50:02
Flight Rules vfr VFR
Wind030° at 05 kt
W.Decomp.*RWY 30: 0.3 kt HW 5.0 kt RCW
W.Rank030° ranks 30
Current wind is above 030° avg. (3.8)
Visibility9999 m
Phenomena:N/A
Clouds:Few 100 Hf
Expected CloudBase > 6,400 ft AGL from Temp-Dew spread
CeilingNone
Temp30°C (ISA +17)
Dew Point14°C (38% RH)
Heat Index29.5°C
AAT29.5°C
QNH1015 hPa
Density Alt3,196 ft
Elevation1,083 ft
Report Wrong Elevation
Raw Report
UBBG 240830Z 03005KT 330V100 9999 FEW100 30/14 Q1015 R30/CLRD//
NOSIG=

Extra information for UBBG:More info

Metar Taf Metar & Taf Last 4 Metars F.Rules Stats Wind Profile Meteogram Temp Stats Airport Information Weather charts Add Link Nearby VenuesMetar ALERT Operation Metar Decoded Social comments